sensor_id;sensor_type;location;lat;lon;timestamp;temperature;humidity
35970;DHT22;22448;51.298;6.430;2023-12-29T00:02:12;10.10;99.90
35970;DHT22;22448;51.298;6.430;2023-12-29T00:04:39;10.10;99.90
35970;DHT22;22448;51.298;6.430;2023-12-29T00:07:05;10.10;99.90
35970;DHT22;22448;51.298;6.430;2023-12-29T00:09:33;10.10;99.90
35970;DHT22;22448;51.298;6.430;2023-12-29T00:12:06;10.10;99.90
35970;DHT22;22448;51.298;6.430;2023-12-29T00:14:36;10.10;99.90
35970;DHT22;22448;51.298;6.430;2023-12-29T00:17:03;10.10;99.90
35970;DHT22;22448;51.298;6.430;2023-12-29T00:19:30;10.10;99.90
35970;DHT22;22448;51.298;6.430;2023-12-29T00:21:58;10.10;99.90
35970;DHT22;22448;51.298;6.430;2023-12-29T00:24:26;10.10;99.90
35970;DHT22;22448;51.298;6.430;2023-12-29T00:26:53;10.10;99.90
35970;DHT22;22448;51.298;6.430;2023-12-29T00:29:20;10.10;99.90
35970;DHT22;22448;51.298;6.430;2023-12-29T00:31:47;10.10;99.90
35970;DHT22;22448;51.298;6.430;2023-12-29T00:34:15;10.20;99.90
35970;DHT22;22448;51.298;6.430;2023-12-29T00:36:42;10.20;99.90
35970;DHT22;22448;51.298;6.430;2023-12-29T00:39:09;10.20;99.90
35970;DHT22;22448;51.298;6.430;2023-12-29T00:41:36;10.20;99.90
35970;DHT22;22448;51.298;6.430;2023-12-29T00:44:04;10.20;99.90
35970;DHT22;22448;51.298;6.430;2023-12-29T00:46:31;10.20;99.90
35970;DHT22;22448;51.298;6.430;2023-12-29T00:48:57;10.20;99.90
35970;DHT22;22448;51.298;6.430;2023-12-29T00:51:25;10.20;99.90
35970;DHT22;22448;51.298;6.430;2023-12-29T00:53:52;10.10;99.90
35970;DHT22;22448;51.298;6.430;2023-12-29T00:56:19;10.10;99.90
35970;DHT22;22448;51.298;6.430;2023-12-29T00:58:46;10.10;99.90
35970;DHT22;22448;51.298;6.430;2023-12-29T01:01:13;10.00;99.90
35970;DHT22;22448;51.298;6.430;2023-12-29T01:03:40;10.00;99.90
35970;DHT22;22448;51.298;6.430;2023-12-29T01:06:07;9.90;99.90
35970;DHT22;22448;51.298;6.430;2023-12-29T01:08:35;9.90;99.90
35970;DHT22;22448;51.298;6.430;2023-12-29T01:11:02;9.80;99.90
35970;DHT22;22448;51.298;6.430;2023-12-29T01:13:29;9.80;99.90
35970;DHT22;22448;51.298;6.430;2023-12-29T01:15:56;9.90;99.90
35970;DHT22;22448;51.298;6.430;2023-12-29T01:18:23;9.80;99.90
35970;DHT22;22448;51.298;6.430;2023-12-29T01:20:50;9.80;99.90
35970;DHT22;22448;51.298;6.430;2023-12-29T01:23:17;9.90;99.90
35970;DHT22;22448;51.298;6.430;2023-12-29T01:25:44;9.90;99.90
35970;DHT22;22448;51.298;6.430;2023-12-29T01:28:11;9.90;99.90
35970;DHT22;22448;51.298;6.430;2023-12-29T01:30:38;9.90;99.90
35970;DHT22;22448;51.298;6.430;2023-12-29T01:33:06;9.90;99.90
35970;DHT22;22448;51.298;6.430;2023-12-29T01:35:33;9.90;99.90
35970;DHT22;22448;51.298;6.430;2023-12-29T01:38:01;9.90;99.90
35970;DHT22;22448;51.298;6.430;2023-12-29T01:40:29;9.90;99.90
35970;DHT22;22448;51.298;6.430;2023-12-29T01:42:56;9.90;99.90
35970;DHT22;22448;51.298;6.430;2023-12-29T01:45:24;9.90;99.90
35970;DHT22;22448;51.298;6.430;2023-12-29T01:47:53;9.90;99.90
35970;DHT22;22448;51.298;6.430;2023-12-29T01:50:21;9.90;99.90
35970;DHT22;22448;51.298;6.430;2023-12-29T01:52:50;9.90;99.90
35970;DHT22;22448;51.298;6.430;2023-12-29T01:55:20;9.90;99.90
35970;DHT22;22448;51.298;6.430;2023-12-29T01:57:49;9.90;99.90
35970;DHT22;22448;51.298;6.430;2023-12-29T02:00:17;9.90;99.90
35970;DHT22;22448;51.298;6.430;2023-12-29T02:02:48;9.80;99.90
35970;DHT22;22448;51.298;6.430;2023-12-29T02:05:17;9.70;99.90
35970;DHT22;22448;51.298;6.430;2023-12-29T02:07:44;9.70;99.90
35970;DHT22;22448;51.298;6.430;2023-12-29T02:10:12;9.60;99.90
35970;DHT22;22448;51.298;6.430;2023-12-29T02:12:42;9.50;99.90
35970;DHT22;22448;51.298;6.430;2023-12-29T02:15:10;9.50;99.90
35970;DHT22;22448;51.298;6.430;2023-12-29T02:17:44;9.50;99.90
35970;DHT22;22448;51.298;6.430;2023-12-29T02:20:12;9.40;99.90
35970;DHT22;22448;51.298;6.430;2023-12-29T02:22:39;9.40;99.90
35970;DHT22;22448;51.298;6.430;2023-12-29T02:25:07;9.40;99.90
35970;DHT22;22448;51.298;6.430;2023-12-29T02:30:51;9.40;99.90
35970;DHT22;22448;51.298;6.430;2023-12-29T02:33:22;9.50;99.90
35970;DHT22;22448;51.298;6.430;2023-12-29T02:35:52;9.40;99.90
35970;DHT22;22448;51.298;6.430;2023-12-29T02:38:19;9.50;99.90
35970;DHT22;22448;51.298;6.430;2023-12-29T02:40:46;9.50;99.90
35970;DHT22;22448;51.298;6.430;2023-12-29T02:43:14;9.40;99.90
35970;DHT22;22448;51.298;6.430;2023-12-29T02:45:41;9.40;99.90
35970;DHT22;22448;51.298;6.430;2023-12-29T02:48:09;9.40;99.90
35970;DHT22;22448;51.298;6.430;2023-12-29T02:50:37;9.40;99.90
35970;DHT22;22448;51.298;6.430;2023-12-29T02:53:04;9.50;99.90
35970;DHT22;22448;51.298;6.430;2023-12-29T02:55:31;9.40;99.90
35970;DHT22;22448;51.298;6.430;2023-12-29T02:57:58;9.40;99.90
35970;DHT22;22448;51.298;6.430;2023-12-29T03:00:27;9.40;99.90
35970;DHT22;22448;51.298;6.430;2023-12-29T03:02:54;9.40;99.90
35970;DHT22;22448;51.298;6.430;2023-12-29T03:05:22;9.40;99.90
35970;DHT22;22448;51.298;6.430;2023-12-29T03:07:49;9.40;99.90
35970;DHT22;22448;51.298;6.430;2023-12-29T03:10:17;9.40;99.90
35970;DHT22;22448;51.298;6.430;2023-12-29T03:12:44;9.50;99.90
35970;DHT22;22448;51.298;6.430;2023-12-29T03:15:11;9.50;99.90
35970;DHT22;22448;51.298;6.430;2023-12-29T03:17:38;9.50;99.90
35970;DHT22;22448;51.298;6.430;2023-12-29T03:20:06;9.50;99.90
35970;DHT22;22448;51.298;6.430;2023-12-29T03:22:34;9.50;99.90
35970;DHT22;22448;51.298;6.430;2023-12-29T03:25:01;9.60;99.90
35970;DHT22;22448;51.298;6.430;2023-12-29T03:27:29;9.60;99.90
35970;DHT22;22448;51.298;6.430;2023-12-29T03:29:56;9.60;99.90
35970;DHT22;22448;51.298;6.430;2023-12-29T03:32:23;9.60;99.90
35970;DHT22;22448;51.298;6.430;2023-12-29T03:34:50;9.70;99.90
35970;DHT22;22448;51.298;6.430;2023-12-29T03:37:17;9.70;99.90
35970;DHT22;22448;51.298;6.430;2023-12-29T03:39:45;9.70;99.90
35970;DHT22;22448;51.298;6.430;2023-12-29T03:42:13;9.80;99.90
35970;DHT22;22448;51.298;6.430;2023-12-29T03:44:40;9.80;99.90
35970;DHT22;22448;51.298;6.430;2023-12-29T03:47:09;9.80;99.90
35970;DHT22;22448;51.298;6.430;2023-12-29T03:49:37;9.80;99.90
35970;DHT22;22448;51.298;6.430;2023-12-29T03:52:04;9.80;99.90
35970;DHT22;22448;51.298;6.430;2023-12-29T03:54:32;9.90;99.90
35970;DHT22;22448;51.298;6.430;2023-12-29T03:56:59;9.90;99.90
35970;DHT22;22448;51.298;6.430;2023-12-29T03:59:26;10.00;99.90
35970;DHT22;22448;51.298;6.430;2023-12-29T04:01:53;9.90;99.90
35970;DHT22;22448;51.298;6.430;2023-12-29T04:04:20;9.90;99.90
35970;DHT22;22448;51.298;6.430;2023-12-29T04:06:47;9.90;99.90
35970;DHT22;22448;51.298;6.430;2023-12-29T04:09:14;9.90;99.90
35970;DHT22;22448;51.298;6.430;2023-12-29T04:11:42;9.90;99.90
35970;DHT22;22448;51.298;6.430;2023-12-29T04:14:09;9.80;99.90
35970;DHT22;22448;51.298;6.430;2023-12-29T04:16:39;9.80;99.90
35970;DHT22;22448;51.298;6.430;2023-12-29T04:19:06;9.80;99.90
35970;DHT22;22448;51.298;6.430;2023-12-29T04:21:34;9.70;99.90
35970;DHT22;22448;51.298;6.430;2023-12-29T04:24:02;9.70;99.90
35970;DHT22;22448;51.298;6.430;2023-12-29T04:26:29;9.60;99.90
35970;DHT22;22448;51.298;6.430;2023-12-29T04:28:56;9.60;99.90
35970;DHT22;22448;51.298;6.430;2023-12-29T04:31:24;9.60;99.90
35970;DHT22;22448;51.298;6.430;2023-12-29T04:33:51;9.50;99.90
35970;DHT22;22448;51.298;6.430;2023-12-29T04:36:18;9.50;99.90
35970;DHT22;22448;51.298;6.430;2023-12-29T04:38:45;9.50;99.90
35970;DHT22;22448;51.298;6.430;2023-12-29T04:41:13;9.50;99.90
35970;DHT22;22448;51.298;6.430;2023-12-29T04:43:41;9.50;99.90
35970;DHT22;22448;51.298;6.430;2023-12-29T04:46:08;9.50;99.90
35970;DHT22;22448;51.298;6.430;2023-12-29T04:48:35;9.50;99.90
35970;DHT22;22448;51.298;6.430;2023-12-29T04:51:03;9.50;99.90
35970;DHT22;22448;51.298;6.430;2023-12-29T04:53:30;9.50;99.90
35970;DHT22;22448;51.298;6.430;2023-12-29T04:55:57;9.50;99.90
35970;DHT22;22448;51.298;6.430;2023-12-29T04:58:24;9.40;99.90
35970;DHT22;22448;51.298;6.430;2023-12-29T05:00:51;9.40;99.90
35970;DHT22;22448;51.298;6.430;2023-12-29T05:03:19;9.40;99.90
35970;DHT22;22448;51.298;6.430;2023-12-29T05:05:46;9.50;99.90
35970;DHT22;22448;51.298;6.430;2023-12-29T05:08:13;9.50;99.90
35970;DHT22;22448;51.298;6.430;2023-12-29T05:10:40;9.40;99.90
35970;DHT22;22448;51.298;6.430;2023-12-29T05:13:07;9.50;99.90
35970;DHT22;22448;51.298;6.430;2023-12-29T05:15:34;9.40;99.90
35970;DHT22;22448;51.298;6.430;2023-12-29T05:18:02;9.50;99.90
35970;DHT22;22448;51.298;6.430;2023-12-29T05:20:29;9.50;99.90
35970;DHT22;22448;51.298;6.430;2023-12-29T05:22:57;9.50;99.90
35970;DHT22;22448;51.298;6.430;2023-12-29T05:25:24;9.50;99.90
35970;DHT22;22448;51.298;6.430;2023-12-29T05:27:51;9.50;99.90
35970;DHT22;22448;51.298;6.430;2023-12-29T05:30:18;9.50;99.90
35970;DHT22;22448;51.298;6.430;2023-12-29T05:32:46;9.50;99.90
35970;DHT22;22448;51.298;6.430;2023-12-29T05:35:13;9.50;99.90
35970;DHT22;22448;51.298;6.430;2023-12-29T05:37:40;9.50;99.90
35970;DHT22;22448;51.298;6.430;2023-12-29T05:40:08;9.50;99.90
35970;DHT22;22448;51.298;6.430;2023-12-29T05:42:35;9.50;99.90
35970;DHT22;22448;51.298;6.430;2023-12-29T05:45:02;9.50;99.90
35970;DHT22;22448;51.298;6.430;2023-12-29T05:47:29;9.50;99.90
35970;DHT22;22448;51.298;6.430;2023-12-29T05:49:57;9.40;99.90
35970;DHT22;22448;51.298;6.430;2023-12-29T05:52:24;9.40;99.90
35970;DHT22;22448;51.298;6.430;2023-12-29T05:54:51;9.40;99.90
35970;DHT22;22448;51.298;6.430;2023-12-29T05:57:18;9.40;99.90
35970;DHT22;22448;51.298;6.430;2023-12-29T05:59:45;9.40;99.90
35970;DHT22;22448;51.298;6.430;2023-12-29T06:02:12;9.30;99.90
35970;DHT22;22448;51.298;6.430;2023-12-29T06:04:40;9.30;99.90
35970;DHT22;22448;51.298;6.430;2023-12-29T06:07:07;9.30;99.90
35970;DHT22;22448;51.298;6.430;2023-12-29T06:09:34;9.30;99.90
35970;DHT22;22448;51.298;6.430;2023-12-29T06:12:01;9.20;99.90
35970;DHT22;22448;51.298;6.430;2023-12-29T06:14:28;9.20;99.90
35970;DHT22;22448;51.298;6.430;2023-12-29T06:16:56;9.30;99.90
35970;DHT22;22448;51.298;6.430;2023-12-29T06:19:23;9.30;99.90
35970;DHT22;22448;51.298;6.430;2023-12-29T06:21:50;9.30;99.90
35970;DHT22;22448;51.298;6.430;2023-12-29T06:24:17;9.40;99.90
35970;DHT22;22448;51.298;6.430;2023-12-29T06:26:45;9.40;99.90
35970;DHT22;22448;51.298;6.430;2023-12-29T06:29:12;9.50;99.90
35970;DHT22;22448;51.298;6.430;2023-12-29T06:31:42;9.50;99.90
35970;DHT22;22448;51.298;6.430;2023-12-29T06:34:10;9.50;99.90
35970;DHT22;22448;51.298;6.430;2023-12-29T06:36:37;9.60;99.90
35970;DHT22;22448;51.298;6.430;2023-12-29T06:39:04;9.50;99.90
35970;DHT22;22448;51.298;6.430;2023-12-29T06:41:32;9.50;99.90
35970;DHT22;22448;51.298;6.430;2023-12-29T06:43:59;9.50;99.90
35970;DHT22;22448;51.298;6.430;2023-12-29T06:46:27;9.50;99.90
35970;DHT22;22448;51.298;6.430;2023-12-29T06:48:54;9.60;99.90
35970;DHT22;22448;51.298;6.430;2023-12-29T06:51:21;9.60;99.90
35970;DHT22;22448;51.298;6.430;2023-12-29T06:53:50;9.70;99.90
35970;DHT22;22448;51.298;6.430;2023-12-29T06:56:17;9.60;99.90
35970;DHT22;22448;51.298;6.430;2023-12-29T06:58:45;9.60;99.90
35970;DHT22;22448;51.298;6.430;2023-12-29T07:01:12;9.60;99.90
35970;DHT22;22448;51.298;6.430;2023-12-29T07:03:40;9.50;99.90
35970;DHT22;22448;51.298;6.430;2023-12-29T07:06:07;9.40;99.90
35970;DHT22;22448;51.298;6.430;2023-12-29T07:08:34;9.40;99.90
35970;DHT22;22448;51.298;6.430;2023-12-29T07:11:02;9.30;99.90
35970;DHT22;22448;51.298;6.430;2023-12-29T07:13:29;9.30;99.90
35970;DHT22;22448;51.298;6.430;2023-12-29T07:15:56;9.20;99.90
35970;DHT22;22448;51.298;6.430;2023-12-29T07:18:24;9.20;99.90
35970;DHT22;22448;51.298;6.430;2023-12-29T07:20:51;9.20;99.90
35970;DHT22;22448;51.298;6.430;2023-12-29T07:23:18;9.10;99.90
35970;DHT22;22448;51.298;6.430;2023-12-29T07:25:45;9.10;99.90
35970;DHT22;22448;51.298;6.430;2023-12-29T07:28:12;9.10;99.90
35970;DHT22;22448;51.298;6.430;2023-12-29T07:30:39;9.10;99.90
35970;DHT22;22448;51.298;6.430;2023-12-29T07:33:07;9.00;99.90
35970;DHT22;22448;51.298;6.430;2023-12-29T07:35:34;9.00;99.90
35970;DHT22;22448;51.298;6.430;2023-12-29T07:38:01;9.00;99.90
35970;DHT22;22448;51.298;6.430;2023-12-29T07:40:29;9.00;99.90
35970;DHT22;22448;51.298;6.430;2023-12-29T07:42:56;9.00;99.90
35970;DHT22;22448;51.298;6.430;2023-12-29T07:45:23;9.00;99.90
35970;DHT22;22448;51.298;6.430;2023-12-29T07:47:51;9.00;99.90
35970;DHT22;22448;51.298;6.430;2023-12-29T07:50:18;9.00;99.90
35970;DHT22;22448;51.298;6.430;2023-12-29T07:52:45;9.00;99.90
35970;DHT22;22448;51.298;6.430;2023-12-29T07:55:12;9.00;99.90
35970;DHT22;22448;51.298;6.430;2023-12-29T07:57:39;9.00;99.90
35970;DHT22;22448;51.298;6.430;2023-12-29T08:00:07;9.00;99.90
35970;DHT22;22448;51.298;6.430;2023-12-29T08:02:38;9.00;99.90
35970;DHT22;22448;51.298;6.430;2023-12-29T08:05:05;9.00;99.90
35970;DHT22;22448;51.298;6.430;2023-12-29T08:07:32;9.10;99.90
35970;DHT22;22448;51.298;6.430;2023-12-29T08:09:59;9.00;99.90
35970;DHT22;22448;51.298;6.430;2023-12-29T08:12:26;9.00;99.90
35970;DHT22;22448;51.298;6.430;2023-12-29T08:14:55;9.00;99.90
35970;DHT22;22448;51.298;6.430;2023-12-29T08:17:23;9.00;99.90
35970;DHT22;22448;51.298;6.430;2023-12-29T08:19:50;9.00;99.90
35970;DHT22;22448;51.298;6.430;2023-12-29T08:22:18;9.00;99.90
35970;DHT22;22448;51.298;6.430;2023-12-29T08:24:45;9.00;99.90
35970;DHT22;22448;51.298;6.430;2023-12-29T08:27:13;9.00;99.90
35970;DHT22;22448;51.298;6.430;2023-12-29T08:29:40;9.00;99.90
35970;DHT22;22448;51.298;6.430;2023-12-29T08:32:07;9.00;99.90
35970;DHT22;22448;51.298;6.430;2023-12-29T08:34:34;9.00;99.90
35970;DHT22;22448;51.298;6.430;2023-12-29T08:37:02;9.00;99.90
35970;DHT22;22448;51.298;6.430;2023-12-29T08:39:29;9.00;99.90
35970;DHT22;22448;51.298;6.430;2023-12-29T08:41:56;9.00;99.90
35970;DHT22;22448;51.298;6.430;2023-12-29T08:44:23;9.00;99.90
35970;DHT22;22448;51.298;6.430;2023-12-29T08:46:51;9.10;99.90
35970;DHT22;22448;51.298;6.430;2023-12-29T08:49:18;9.10;99.90
35970;DHT22;22448;51.298;6.430;2023-12-29T08:51:45;9.10;99.90
35970;DHT22;22448;51.298;6.430;2023-12-29T08:54:12;9.20;99.90
35970;DHT22;22448;51.298;6.430;2023-12-29T08:56:39;9.20;99.90
35970;DHT22;22448;51.298;6.430;2023-12-29T08:59:07;9.20;99.90
35970;DHT22;22448;51.298;6.430;2023-12-29T09:01:34;9.20;99.90
35970;DHT22;22448;51.298;6.430;2023-12-29T09:04:01;9.30;99.90
35970;DHT22;22448;51.298;6.430;2023-12-29T09:06:28;9.30;99.90
35970;DHT22;22448;51.298;6.430;2023-12-29T09:08:55;9.30;99.90
35970;DHT22;22448;51.298;6.430;2023-12-29T09:11:22;9.30;99.90
35970;DHT22;22448;51.298;6.430;2023-12-29T09:13:49;9.30;99.90
35970;DHT22;22448;51.298;6.430;2023-12-29T09:16:16;9.30;99.90
35970;DHT22;22448;51.298;6.430;2023-12-29T09:18:43;9.30;99.90
35970;DHT22;22448;51.298;6.430;2023-12-29T09:21:10;9.30;99.90
35970;DHT22;22448;51.298;6.430;2023-12-29T09:23:39;9.30;99.90
35970;DHT22;22448;51.298;6.430;2023-12-29T09:26:06;9.30;99.90
35970;DHT22;22448;51.298;6.430;2023-12-29T09:28:33;9.40;99.90
35970;DHT22;22448;51.298;6.430;2023-12-29T09:31:01;9.40;99.90
35970;DHT22;22448;51.298;6.430;2023-12-29T09:33:28;9.40;99.90
35970;DHT22;22448;51.298;6.430;2023-12-29T09:35:55;9.40;99.90
35970;DHT22;22448;51.298;6.430;2023-12-29T09:38:22;9.40;99.90
35970;DHT22;22448;51.298;6.430;2023-12-29T09:40:50;9.40;99.90
35970;DHT22;22448;51.298;6.430;2023-12-29T09:43:19;9.40;99.90
35970;DHT22;22448;51.298;6.430;2023-12-29T09:45:47;9.40;99.90
35970;DHT22;22448;51.298;6.430;2023-12-29T09:48:16;9.40;99.90
35970;DHT22;22448;51.298;6.430;2023-12-29T09:50:48;9.30;99.90
35970;DHT22;22448;51.298;6.430;2023-12-29T09:53:17;9.20;99.90
35970;DHT22;22448;51.298;6.430;2023-12-29T09:55:45;9.20;99.90
35970;DHT22;22448;51.298;6.430;2023-12-29T09:58:15;9.20;99.90
35970;DHT22;22448;51.298;6.430;2023-12-29T10:00:42;9.20;99.90
35970;DHT22;22448;51.298;6.430;2023-12-29T10:03:10;9.20;99.90
35970;DHT22;22448;51.298;6.430;2023-12-29T10:05:37;9.20;99.90
35970;DHT22;22448;51.298;6.430;2023-12-29T10:08:05;9.20;99.90
35970;DHT22;22448;51.298;6.430;2023-12-29T10:10:35;9.20;99.90
35970;DHT22;22448;51.298;6.430;2023-12-29T10:13:04;9.20;99.90
35970;DHT22;22448;51.298;6.430;2023-12-29T10:16:15;9.20;99.90
35970;DHT22;22448;51.298;6.430;2023-12-29T10:18:58;9.20;99.90
35970;DHT22;22448;51.298;6.430;2023-12-29T10:21:29;9.20;99.90
35970;DHT22;22448;51.298;6.430;2023-12-29T10:24:13;9.20;99.90
35970;DHT22;22448;51.298;6.430;2023-12-29T10:26:41;9.20;99.90
35970;DHT22;22448;51.298;6.430;2023-12-29T10:29:12;9.30;99.90
35970;DHT22;22448;51.298;6.430;2023-12-29T10:31:41;9.40;99.90
35970;DHT22;22448;51.298;6.430;2023-12-29T10:34:21;9.50;99.90
35970;DHT22;22448;51.298;6.430;2023-12-29T10:36:56;9.60;99.90
35970;DHT22;22448;51.298;6.430;2023-12-29T10:39:24;9.70;99.90
35970;DHT22;22448;51.298;6.430;2023-12-29T10:42:08;9.70;99.90
35970;DHT22;22448;51.298;6.430;2023-12-29T10:44:37;9.80;99.90
35970;DHT22;22448;51.298;6.430;2023-12-29T10:47:11;9.80;99.90
35970;DHT22;22448;51.298;6.430;2023-12-29T10:49:39;9.90;99.90
35970;DHT22;22448;51.298;6.430;2023-12-29T10:52:14;9.90;99.90
35970;DHT22;22448;51.298;6.430;2023-12-29T10:54:42;10.00;99.90
35970;DHT22;22448;51.298;6.430;2023-12-29T10:57:11;9.90;99.90
35970;DHT22;22448;51.298;6.430;2023-12-29T10:59:39;10.00;99.90
35970;DHT22;22448;51.298;6.430;2023-12-29T11:02:06;10.00;99.90
35970;DHT22;22448;51.298;6.430;2023-12-29T11:04:35;10.10;99.90
35970;DHT22;22448;51.298;6.430;2023-12-29T11:07:02;10.10;99.90
35970;DHT22;22448;51.298;6.430;2023-12-29T11:09:31;10.10;99.90
35970;DHT22;22448;51.298;6.430;2023-12-29T11:12:01;10.20;99.90
35970;DHT22;22448;51.298;6.430;2023-12-29T11:14:28;10.20;99.90
35970;DHT22;22448;51.298;6.430;2023-12-29T11:16:57;10.20;99.90
35970;DHT22;22448;51.298;6.430;2023-12-29T11:19:26;10.20;99.90
35970;DHT22;22448;51.298;6.430;2023-12-29T11:21:57;10.20;99.90
35970;DHT22;22448;51.298;6.430;2023-12-29T11:24:24;10.20;99.90
35970;DHT22;22448;51.298;6.430;2023-12-29T11:27:06;10.10;99.90
35970;DHT22;22448;51.298;6.430;2023-12-29T11:29:35;10.20;99.90
35970;DHT22;22448;51.298;6.430;2023-12-29T11:32:04;10.20;99.90
35970;DHT22;22448;51.298;6.430;2023-12-29T11:34:38;10.20;99.90
35970;DHT22;22448;51.298;6.430;2023-12-29T11:37:43;10.10;99.90
35970;DHT22;22448;51.298;6.430;2023-12-29T11:40:23;10.10;99.90
35970;DHT22;22448;51.298;6.430;2023-12-29T11:42:54;10.10;99.90
35970;DHT22;22448;51.298;6.430;2023-12-29T11:45:33;10.10;99.90
35970;DHT22;22448;51.298;6.430;2023-12-29T11:48:03;10.10;99.90
35970;DHT22;22448;51.298;6.430;2023-12-29T11:50:32;10.10;99.90
35970;DHT22;22448;51.298;6.430;2023-12-29T11:53:00;10.10;99.90
35970;DHT22;22448;51.298;6.430;2023-12-29T11:55:36;10.10;99.90
35970;DHT22;22448;51.298;6.430;2023-12-29T11:58:05;10.10;99.90
35970;DHT22;22448;51.298;6.430;2023-12-29T12:00:50;10.00;99.90
35970;DHT22;22448;51.298;6.430;2023-12-29T12:03:30;10.00;99.90
35970;DHT22;22448;51.298;6.430;2023-12-29T12:06:01;9.90;99.90
35970;DHT22;22448;51.298;6.430;2023-12-29T12:08:32;9.80;99.90
35970;DHT22;22448;51.298;6.430;2023-12-29T12:13:57;9.60;99.90
35970;DHT22;22448;51.298;6.430;2023-12-29T12:19:09;9.50;99.90
35970;DHT22;22448;51.298;6.430;2023-12-29T12:21:40;9.40;99.90
35970;DHT22;22448;51.298;6.430;2023-12-29T12:24:07;9.40;99.90
35970;DHT22;22448;51.298;6.430;2023-12-29T12:26:34;9.40;99.90
35970;DHT22;22448;51.298;6.430;2023-12-29T12:29:02;9.40;99.90
35970;DHT22;22448;51.298;6.430;2023-12-29T12:31:30;9.50;99.90
35970;DHT22;22448;51.298;6.430;2023-12-29T12:33:57;9.60;99.90
35970;DHT22;22448;51.298;6.430;2023-12-29T12:36:25;9.70;99.90
35970;DHT22;22448;51.298;6.430;2023-12-29T12:38:54;9.70;99.90
35970;DHT22;22448;51.298;6.430;2023-12-29T12:41:25;9.80;99.90
35970;DHT22;22448;51.298;6.430;2023-12-29T12:44:12;9.80;99.90
35970;DHT22;22448;51.298;6.430;2023-12-29T12:46:49;9.90;99.90
35970;DHT22;22448;51.298;6.430;2023-12-29T12:49:18;10.00;99.90
35970;DHT22;22448;51.298;6.430;2023-12-29T12:51:46;10.00;99.90
35970;DHT22;22448;51.298;6.430;2023-12-29T12:54:15;10.00;99.90
35970;DHT22;22448;51.298;6.430;2023-12-29T12:56:44;10.00;99.90
35970;DHT22;22448;51.298;6.430;2023-12-29T12:59:12;10.00;99.90
35970;DHT22;22448;51.298;6.430;2023-12-29T13:01:39;10.00;99.90
35970;DHT22;22448;51.298;6.430;2023-12-29T13:04:07;10.00;99.90
35970;DHT22;22448;51.298;6.430;2023-12-29T13:06:39;10.00;99.90
35970;DHT22;22448;51.298;6.430;2023-12-29T13:09:18;10.00;99.90
35970;DHT22;22448;51.298;6.430;2023-12-29T13:11:47;10.00;99.90
35970;DHT22;22448;51.298;6.430;2023-12-29T13:14:23;10.00;99.90
35970;DHT22;22448;51.298;6.430;2023-12-29T13:16:52;10.00;99.90
35970;DHT22;22448;51.298;6.430;2023-12-29T13:19:21;10.00;99.90
35970;DHT22;22448;51.298;6.430;2023-12-29T13:21:52;10.00;99.90
35970;DHT22;22448;51.298;6.430;2023-12-29T13:24:23;10.00;99.90
35970;DHT22;22448;51.298;6.430;2023-12-29T13:26:55;9.90;99.90
35970;DHT22;22448;51.298;6.430;2023-12-29T13:29:24;10.00;99.90
35970;DHT22;22448;51.298;6.430;2023-12-29T13:31:54;10.00;99.90
35970;DHT22;22448;51.298;6.430;2023-12-29T13:34:35;10.00;99.90
35970;DHT22;22448;51.298;6.430;2023-12-29T13:40:01;10.00;99.90
35970;DHT22;22448;51.298;6.430;2023-12-29T13:42:31;10.00;99.90
35970;DHT22;22448;51.298;6.430;2023-12-29T13:45:00;10.10;99.90
35970;DHT22;22448;51.298;6.430;2023-12-29T13:47:27;10.10;99.90
35970;DHT22;22448;51.298;6.430;2023-12-29T13:49:55;10.10;99.90
35970;DHT22;22448;51.298;6.430;2023-12-29T13:52:22;10.10;99.90
35970;DHT22;22448;51.298;6.430;2023-12-29T13:54:49;10.10;99.90
35970;DHT22;22448;51.298;6.430;2023-12-29T13:57:16;10.00;99.90
35970;DHT22;22448;51.298;6.430;2023-12-29T13:59:45;10.00;99.90
35970;DHT22;22448;51.298;6.430;2023-12-29T14:02:30;10.00;99.90
35970;DHT22;22448;51.298;6.430;2023-12-29T14:07:53;10.00;99.90
35970;DHT22;22448;51.298;6.430;2023-12-29T14:10:21;9.90;99.90
35970;DHT22;22448;51.298;6.430;2023-12-29T14:12:48;9.90;99.90
35970;DHT22;22448;51.298;6.430;2023-12-29T14:15:16;9.80;99.90
35970;DHT22;22448;51.298;6.430;2023-12-29T14:17:43;9.80;99.90
35970;DHT22;22448;51.298;6.430;2023-12-29T14:20:10;9.80;99.90
35970;DHT22;22448;51.298;6.430;2023-12-29T14:22:37;9.80;99.90
35970;DHT22;22448;51.298;6.430;2023-12-29T14:25:05;9.70;99.90
35970;DHT22;22448;51.298;6.430;2023-12-29T14:27:32;9.70;99.90
35970;DHT22;22448;51.298;6.430;2023-12-29T14:29:59;9.70;99.90
35970;DHT22;22448;51.298;6.430;2023-12-29T14:32:29;9.60;99.90
35970;DHT22;22448;51.298;6.430;2023-12-29T14:34:57;9.60;99.90
35970;DHT22;22448;51.298;6.430;2023-12-29T14:37:24;9.60;99.90
35970;DHT22;22448;51.298;6.430;2023-12-29T14:39:52;9.50;99.90
35970;DHT22;22448;51.298;6.430;2023-12-29T14:42:19;9.50;99.90
35970;DHT22;22448;51.298;6.430;2023-12-29T14:44:47;9.50;99.90
35970;DHT22;22448;51.298;6.430;2023-12-29T14:47:16;9.40;99.90
35970;DHT22;22448;51.298;6.430;2023-12-29T14:49:43;9.40;99.90
35970;DHT22;22448;51.298;6.430;2023-12-29T14:52:10;9.40;99.90
35970;DHT22;22448;51.298;6.430;2023-12-29T14:54:38;9.40;99.90
35970;DHT22;22448;51.298;6.430;2023-12-29T14:57:06;9.40;99.90
35970;DHT22;22448;51.298;6.430;2023-12-29T14:59:41;9.30;99.90
35970;DHT22;22448;51.298;6.430;2023-12-29T15:02:08;9.30;99.90
35970;DHT22;22448;51.298;6.430;2023-12-29T15:04:35;9.30;99.90
35970;DHT22;22448;51.298;6.430;2023-12-29T15:07:03;9.30;99.90
35970;DHT22;22448;51.298;6.430;2023-12-29T15:09:30;9.30;99.90
35970;DHT22;22448;51.298;6.430;2023-12-29T15:11:57;9.30;99.90
35970;DHT22;22448;51.298;6.430;2023-12-29T15:14:24;9.30;99.90
35970;DHT22;22448;51.298;6.430;2023-12-29T15:16:51;9.30;99.90
35970;DHT22;22448;51.298;6.430;2023-12-29T15:19:17;9.20;99.90
35970;DHT22;22448;51.298;6.430;2023-12-29T15:21:44;9.20;99.90
35970;DHT22;22448;51.298;6.430;2023-12-29T15:24:11;9.20;99.90
35970;DHT22;22448;51.298;6.430;2023-12-29T15:26:38;9.20;99.90
35970;DHT22;22448;51.298;6.430;2023-12-29T15:29:05;9.20;99.90
35970;DHT22;22448;51.298;6.430;2023-12-29T15:31:33;9.20;99.90
35970;DHT22;22448;51.298;6.430;2023-12-29T15:34:00;9.20;99.90
35970;DHT22;22448;51.298;6.430;2023-12-29T15:36:27;9.30;99.90
35970;DHT22;22448;51.298;6.430;2023-12-29T15:38:54;9.20;99.90
35970;DHT22;22448;51.298;6.430;2023-12-29T15:41:21;9.30;99.90
35970;DHT22;22448;51.298;6.430;2023-12-29T15:43:48;9.30;99.90
35970;DHT22;22448;51.298;6.430;2023-12-29T15:46:17;9.20;99.90
35970;DHT22;22448;51.298;6.430;2023-12-29T15:48:45;9.20;99.90
35970;DHT22;22448;51.298;6.430;2023-12-29T15:51:12;9.20;99.90
35970;DHT22;22448;51.298;6.430;2023-12-29T15:53:39;9.20;99.90
35970;DHT22;22448;51.298;6.430;2023-12-29T15:56:07;9.20;99.90
35970;DHT22;22448;51.298;6.430;2023-12-29T15:58:34;9.20;99.90
35970;DHT22;22448;51.298;6.430;2023-12-29T16:01:01;9.20;99.90
35970;DHT22;22448;51.298;6.430;2023-12-29T16:03:31;9.20;99.90
35970;DHT22;22448;51.298;6.430;2023-12-29T16:05:59;9.20;99.90